sensor_id;sensor_type;location;lat;lon;timestamp;temperature;humidity
64768;DHT22;51202;48.130;11.702;2022-07-09T00:02:35;16.70;43.90
64768;DHT22;51202;48.130;11.702;2022-07-09T00:05:05;16.50;44.00
64768;DHT22;51202;48.130;11.702;2022-07-09T00:07:41;16.40;44.10
64768;DHT22;51202;48.130;11.702;2022-07-09T00:10:09;16.40;44.20
64768;DHT22;51202;48.130;11.702;2022-07-09T00:12:39;16.30;44.30
64768;DHT22;51202;48.130;11.702;2022-07-09T00:15:08;16.30;44.30
64768;DHT22;51202;48.130;11.702;2022-07-09T00:17:37;16.20;44.30
64768;DHT22;51202;48.130;11.702;2022-07-09T00:20:07;16.20;44.40
64768;DHT22;51202;48.130;11.702;2022-07-09T00:22:36;16.10;44.40
64768;DHT22;51202;48.130;11.702;2022-07-09T00:25:07;16.10;44.50
64768;DHT22;51202;48.130;11.702;2022-07-09T00:27:35;16.00;44.50
64768;DHT22;51202;48.130;11.702;2022-07-09T00:30:05;15.90;44.50
64768;DHT22;51202;48.130;11.702;2022-07-09T00:32:34;15.90;44.50
64768;DHT22;51202;48.130;11.702;2022-07-09T00:35:03;15.80;44.60
64768;DHT22;51202;48.130;11.702;2022-07-09T00:37:32;15.80;44.70
64768;DHT22;51202;48.130;11.702;2022-07-09T00:40:01;15.80;44.50
64768;DHT22;51202;48.130;11.702;2022-07-09T00:42:31;15.80;44.40
64768;DHT22;51202;48.130;11.702;2022-07-09T00:45:00;15.70;44.40
64768;DHT22;51202;48.130;11.702;2022-07-09T00:47:36;15.60;44.70
64768;DHT22;51202;48.130;11.702;2022-07-09T00:50:06;15.60;44.70
64768;DHT22;51202;48.130;11.702;2022-07-09T00:52:35;15.60;44.70
64768;DHT22;51202;48.130;11.702;2022-07-09T00:55:06;15.50;44.70
64768;DHT22;51202;48.130;11.702;2022-07-09T00:57:36;15.60;44.70
64768;DHT22;51202;48.130;11.702;2022-07-09T01:00:07;15.50;44.60
64768;DHT22;51202;48.130;11.702;2022-07-09T01:02:37;15.50;44.70
64768;DHT22;51202;48.130;11.702;2022-07-09T01:05:07;15.50;44.70
64768;DHT22;51202;48.130;11.702;2022-07-09T01:07:36;15.40;44.70
64768;DHT22;51202;48.130;11.702;2022-07-09T01:10:05;15.50;44.70
64768;DHT22;51202;48.130;11.702;2022-07-09T01:12:34;15.30;44.60
64768;DHT22;51202;48.130;11.702;2022-07-09T01:15:05;15.30;44.60
64768;DHT22;51202;48.130;11.702;2022-07-09T01:17:37;15.40;44.60
64768;DHT22;51202;48.130;11.702;2022-07-09T01:20:07;15.40;44.60
64768;DHT22;51202;48.130;11.702;2022-07-09T01:22:38;15.40;44.50
64768;DHT22;51202;48.130;11.702;2022-07-09T01:25:08;15.40;44.50
64768;DHT22;51202;48.130;11.702;2022-07-09T01:27:38;15.40;45.10
64768;DHT22;51202;48.130;11.702;2022-07-09T01:30:07;15.40;44.30
64768;DHT22;51202;48.130;11.702;2022-07-09T01:32:36;15.40;44.20
64768;DHT22;51202;48.130;11.702;2022-07-09T01:35:06;15.50;44.10
64768;DHT22;51202;48.130;11.702;2022-07-09T01:37:35;15.50;44.00
64768;DHT22;51202;48.130;11.702;2022-07-09T01:40:07;15.60;43.90
64768;DHT22;51202;48.130;11.702;2022-07-09T01:42:35;15.60;43.90
64768;DHT22;51202;48.130;11.702;2022-07-09T01:45:05;15.60;44.60
64768;DHT22;51202;48.130;11.702;2022-07-09T01:47:34;15.70;43.80
64768;DHT22;51202;48.130;11.702;2022-07-09T01:50:04;15.70;43.80
64768;DHT22;51202;48.130;11.702;2022-07-09T01:52:33;15.70;43.80
64768;DHT22;51202;48.130;11.702;2022-07-09T01:55:02;15.70;43.80
64768;DHT22;51202;48.130;11.702;2022-07-09T01:57:36;15.70;43.70
64768;DHT22;51202;48.130;11.702;2022-07-09T02:00:06;15.80;43.70
64768;DHT22;51202;48.130;11.702;2022-07-09T02:02:41;15.70;43.80
64768;DHT22;51202;48.130;11.702;2022-07-09T02:05:10;15.60;43.90
64768;DHT22;51202;48.130;11.702;2022-07-09T02:07:39;15.50;44.00
64768;DHT22;51202;48.130;11.702;2022-07-09T02:10:09;15.60;43.90
64768;DHT22;51202;48.130;11.702;2022-07-09T02:12:40;15.60;43.90
64768;DHT22;51202;48.130;11.702;2022-07-09T02:15:09;15.50;43.80
64768;DHT22;51202;48.130;11.702;2022-07-09T02:17:38;15.50;43.90
64768;DHT22;51202;48.130;11.702;2022-07-09T02:20:08;15.50;43.80
64768;DHT22;51202;48.130;11.702;2022-07-09T02:22:39;15.50;43.90
64768;DHT22;51202;48.130;11.702;2022-07-09T02:25:08;15.50;43.90
64768;DHT22;51202;48.130;11.702;2022-07-09T02:27:39;15.50;44.00
64768;DHT22;51202;48.130;11.702;2022-07-09T02:30:08;15.50;43.90
64768;DHT22;51202;48.130;11.702;2022-07-09T02:32:37;15.50;43.90
64768;DHT22;51202;48.130;11.702;2022-07-09T02:35:07;15.50;43.90
64768;DHT22;51202;48.130;11.702;2022-07-09T02:37:36;15.50;43.80
64768;DHT22;51202;48.130;11.702;2022-07-09T02:40:06;15.50;43.90
64768;DHT22;51202;48.130;11.702;2022-07-09T02:42:35;15.40;43.90
64768;DHT22;51202;48.130;11.702;2022-07-09T02:45:07;15.40;43.90
64768;DHT22;51202;48.130;11.702;2022-07-09T02:47:36;15.40;43.90
64768;DHT22;51202;48.130;11.702;2022-07-09T02:50:05;15.40;43.80
64768;DHT22;51202;48.130;11.702;2022-07-09T02:52:34;15.50;43.80
64768;DHT22;51202;48.130;11.702;2022-07-09T02:55:03;15.60;43.70
64768;DHT22;51202;48.130;11.702;2022-07-09T02:57:32;15.60;43.60
64768;DHT22;51202;48.130;11.702;2022-07-09T03:00:01;15.70;43.50
64768;DHT22;51202;48.130;11.702;2022-07-09T03:02:31;15.70;43.40
64768;DHT22;51202;48.130;11.702;2022-07-09T03:05:02;15.70;43.40
64768;DHT22;51202;48.130;11.702;2022-07-09T03:07:30;15.70;43.40
64768;DHT22;51202;48.130;11.702;2022-07-09T03:09:59;15.80;43.40
64768;DHT22;51202;48.130;11.702;2022-07-09T03:12:28;15.80;43.40
64768;DHT22;51202;48.130;11.702;2022-07-09T03:14:57;15.80;43.30
64768;DHT22;51202;48.130;11.702;2022-07-09T03:17:26;15.80;43.40
64768;DHT22;51202;48.130;11.702;2022-07-09T03:19:56;15.80;43.30
64768;DHT22;51202;48.130;11.702;2022-07-09T03:22:25;15.80;43.30
64768;DHT22;51202;48.130;11.702;2022-07-09T03:24:54;15.80;43.40
64768;DHT22;51202;48.130;11.702;2022-07-09T03:27:23;15.80;43.30
64768;DHT22;51202;48.130;11.702;2022-07-09T03:29:51;15.80;43.30
64768;DHT22;51202;48.130;11.702;2022-07-09T03:32:20;15.90;43.20
64768;DHT22;51202;48.130;11.702;2022-07-09T03:34:49;15.90;43.10
64768;DHT22;51202;48.130;11.702;2022-07-09T03:37:21;15.90;43.10
64768;DHT22;51202;48.130;11.702;2022-07-09T03:39:50;15.80;43.30
64768;DHT22;51202;48.130;11.702;2022-07-09T03:42:18;15.90;43.30
64768;DHT22;51202;48.130;11.702;2022-07-09T03:44:47;15.90;43.30
64768;DHT22;51202;48.130;11.702;2022-07-09T03:47:16;15.80;43.30
64768;DHT22;51202;48.130;11.702;2022-07-09T03:49:45;15.90;43.10
64768;DHT22;51202;48.130;11.702;2022-07-09T03:52:14;15.90;43.10
64768;DHT22;51202;48.130;11.702;2022-07-09T03:54:50;15.90;43.20
64768;DHT22;51202;48.130;11.702;2022-07-09T03:57:19;16.00;43.20
64768;DHT22;51202;48.130;11.702;2022-07-09T03:59:48;16.00;43.10
64768;DHT22;51202;48.130;11.702;2022-07-09T04:02:16;16.10;43.10
64768;DHT22;51202;48.130;11.702;2022-07-09T04:04:45;16.00;43.10
64768;DHT22;51202;48.130;11.702;2022-07-09T04:07:14;16.00;43.00
64768;DHT22;51202;48.130;11.702;2022-07-09T04:09:42;16.00;43.10
64768;DHT22;51202;48.130;11.702;2022-07-09T04:12:13;16.10;43.00
64768;DHT22;51202;48.130;11.702;2022-07-09T04:14:41;16.20;43.00
64768;DHT22;51202;48.130;11.702;2022-07-09T04:17:10;16.20;43.00
64768;DHT22;51202;48.130;11.702;2022-07-09T04:19:39;16.20;43.00
64768;DHT22;51202;48.130;11.702;2022-07-09T04:22:08;16.20;43.00
64768;DHT22;51202;48.130;11.702;2022-07-09T04:24:36;16.20;43.00
64768;DHT22;51202;48.130;11.702;2022-07-09T04:27:06;16.20;43.00
64768;DHT22;51202;48.130;11.702;2022-07-09T04:29:36;16.20;43.10
64768;DHT22;51202;48.130;11.702;2022-07-09T04:32:05;16.20;42.90
64768;DHT22;51202;48.130;11.702;2022-07-09T04:34:34;16.20;42.90
64768;DHT22;51202;48.130;11.702;2022-07-09T04:37:03;16.20;43.00
64768;DHT22;51202;48.130;11.702;2022-07-09T04:39:32;16.30;43.10
64768;DHT22;51202;48.130;11.702;2022-07-09T04:42:01;16.30;43.10
64768;DHT22;51202;48.130;11.702;2022-07-09T04:44:30;16.20;43.10
64768;DHT22;51202;48.130;11.702;2022-07-09T04:47:00;16.30;43.10
64768;DHT22;51202;48.130;11.702;2022-07-09T04:49:29;16.30;43.20
64768;DHT22;51202;48.130;11.702;2022-07-09T04:52:06;16.30;43.80
64768;DHT22;51202;48.130;11.702;2022-07-09T04:54:35;16.30;43.20
64768;DHT22;51202;48.130;11.702;2022-07-09T04:57:04;16.30;43.10
64768;DHT22;51202;48.130;11.702;2022-07-09T04:59:33;16.40;43.00
64768;DHT22;51202;48.130;11.702;2022-07-09T05:02:04;16.50;43.00
64768;DHT22;51202;48.130;11.702;2022-07-09T05:04:33;16.60;42.80
64768;DHT22;51202;48.130;11.702;2022-07-09T05:07:02;16.60;42.70
64768;DHT22;51202;48.130;11.702;2022-07-09T05:09:31;16.70;42.60
64768;DHT22;51202;48.130;11.702;2022-07-09T05:12:00;16.70;42.60
64768;DHT22;51202;48.130;11.702;2022-07-09T05:14:29;16.80;42.60
64768;DHT22;51202;48.130;11.702;2022-07-09T05:16:58;16.80;42.70
64768;DHT22;51202;48.130;11.702;2022-07-09T05:19:28;16.80;42.60
64768;DHT22;51202;48.130;11.702;2022-07-09T05:21:57;16.80;42.70
64768;DHT22;51202;48.130;11.702;2022-07-09T05:24:26;16.80;42.70
64768;DHT22;51202;48.130;11.702;2022-07-09T05:26:55;16.90;42.70
64768;DHT22;51202;48.130;11.702;2022-07-09T05:29:24;16.90;42.80
64768;DHT22;51202;48.130;11.702;2022-07-09T05:31:54;16.90;42.80
64768;DHT22;51202;48.130;11.702;2022-07-09T05:34:25;17.00;42.80
64768;DHT22;51202;48.130;11.702;2022-07-09T05:36:55;17.00;42.70
64768;DHT22;51202;48.130;11.702;2022-07-09T05:39:24;17.10;42.70
64768;DHT22;51202;48.130;11.702;2022-07-09T05:41:53;17.20;42.60
64768;DHT22;51202;48.130;11.702;2022-07-09T05:44:21;17.30;42.50
64768;DHT22;51202;48.130;11.702;2022-07-09T05:46:51;17.40;42.40
64768;DHT22;51202;48.130;11.702;2022-07-09T05:49:20;17.40;42.30
64768;DHT22;51202;48.130;11.702;2022-07-09T05:51:49;17.50;42.30
64768;DHT22;51202;48.130;11.702;2022-07-09T05:54:19;17.60;42.30
64768;DHT22;51202;48.130;11.702;2022-07-09T05:56:48;17.60;42.30
64768;DHT22;51202;48.130;11.702;2022-07-09T05:59:16;17.70;42.30
64768;DHT22;51202;48.130;11.702;2022-07-09T06:01:45;17.70;42.20
64768;DHT22;51202;48.130;11.702;2022-07-09T06:04:15;17.80;42.20
64768;DHT22;51202;48.130;11.702;2022-07-09T06:06:44;17.90;42.20
64768;DHT22;51202;48.130;11.702;2022-07-09T06:09:13;17.90;42.20
64768;DHT22;51202;48.130;11.702;2022-07-09T06:11:44;17.90;42.20
64768;DHT22;51202;48.130;11.702;2022-07-09T06:14:13;17.90;42.10
64768;DHT22;51202;48.130;11.702;2022-07-09T06:16:42;18.00;42.20
64768;DHT22;51202;48.130;11.702;2022-07-09T06:19:14;18.00;42.20
64768;DHT22;51202;48.130;11.702;2022-07-09T06:21:44;18.00;42.20
64768;DHT22;51202;48.130;11.702;2022-07-09T06:24:13;18.10;42.30
64768;DHT22;51202;48.130;11.702;2022-07-09T06:26:43;18.10;42.20
64768;DHT22;51202;48.130;11.702;2022-07-09T06:29:14;18.30;42.10
64768;DHT22;51202;48.130;11.702;2022-07-09T06:31:43;18.40;42.00
64768;DHT22;51202;48.130;11.702;2022-07-09T06:34:12;18.60;41.80
64768;DHT22;51202;48.130;11.702;2022-07-09T06:36:41;18.70;41.60
64768;DHT22;51202;48.130;11.702;2022-07-09T06:39:11;18.70;41.70
64768;DHT22;51202;48.130;11.702;2022-07-09T06:42:04;18.70;42.50
64768;DHT22;51202;48.130;11.702;2022-07-09T06:44:35;18.80;41.70
64768;DHT22;51202;48.130;11.702;2022-07-09T06:47:04;18.80;41.70
64768;DHT22;51202;48.130;11.702;2022-07-09T06:49:33;18.80;41.80
64768;DHT22;51202;48.130;11.702;2022-07-09T06:52:02;18.80;41.80
64768;DHT22;51202;48.130;11.702;2022-07-09T06:54:31;18.90;41.80
64768;DHT22;51202;48.130;11.702;2022-07-09T06:57:00;18.90;41.70
64768;DHT22;51202;48.130;11.702;2022-07-09T06:59:34;19.00;41.70
64768;DHT22;51202;48.130;11.702;2022-07-09T07:02:03;19.00;41.70
64768;DHT22;51202;48.130;11.702;2022-07-09T07:04:33;19.00;41.70
64768;DHT22;51202;48.130;11.702;2022-07-09T07:07:02;19.10;41.70
64768;DHT22;51202;48.130;11.702;2022-07-09T07:09:31;19.10;41.70
64768;DHT22;51202;48.130;11.702;2022-07-09T07:12:00;19.10;41.70
64768;DHT22;51202;48.130;11.702;2022-07-09T07:14:29;19.20;41.70
64768;DHT22;51202;48.130;11.702;2022-07-09T07:16:59;19.20;41.60
64768;DHT22;51202;48.130;11.702;2022-07-09T07:19:28;19.30;41.50
64768;DHT22;51202;48.130;11.702;2022-07-09T07:21:57;19.40;41.50
64768;DHT22;51202;48.130;11.702;2022-07-09T07:24:26;19.50;42.00
64768;DHT22;51202;48.130;11.702;2022-07-09T07:26:55;19.60;41.20
64768;DHT22;51202;48.130;11.702;2022-07-09T07:29:24;19.80;41.10
64768;DHT22;51202;48.130;11.702;2022-07-09T07:31:54;19.80;40.90
64768;DHT22;51202;48.130;11.702;2022-07-09T07:34:25;19.90;40.90
64768;DHT22;51202;48.130;11.702;2022-07-09T07:36:54;20.00;40.90
64768;DHT22;51202;48.130;11.702;2022-07-09T07:39:23;20.00;40.90
64768;DHT22;51202;48.130;11.702;2022-07-09T07:41:53;20.10;40.90
64768;DHT22;51202;48.130;11.702;2022-07-09T07:44:22;20.10;40.80
64768;DHT22;51202;48.130;11.702;2022-07-09T07:46:51;20.20;40.70
64768;DHT22;51202;48.130;11.702;2022-07-09T07:49:20;20.30;40.80
64768;DHT22;51202;48.130;11.702;2022-07-09T07:51:50;20.20;40.80
64768;DHT22;51202;48.130;11.702;2022-07-09T07:54:19;20.20;40.90
64768;DHT22;51202;48.130;11.702;2022-07-09T07:56:48;20.10;41.10
64768;DHT22;51202;48.130;11.702;2022-07-09T07:59:17;20.00;41.20
64768;DHT22;51202;48.130;11.702;2022-07-09T08:01:46;20.00;41.20
64768;DHT22;51202;48.130;11.702;2022-07-09T08:04:15;20.00;41.10
64768;DHT22;51202;48.130;11.702;2022-07-09T08:06:43;20.10;41.10
64768;DHT22;51202;48.130;11.702;2022-07-09T08:09:13;20.10;41.00
64768;DHT22;51202;48.130;11.702;2022-07-09T08:11:43;20.20;41.00
64768;DHT22;51202;48.130;11.702;2022-07-09T08:14:11;20.20;40.90
64768;DHT22;51202;48.130;11.702;2022-07-09T08:16:40;20.40;40.90
64768;DHT22;51202;48.130;11.702;2022-07-09T08:19:09;20.50;40.90
64768;DHT22;51202;48.130;11.702;2022-07-09T08:21:38;20.50;40.90
64768;DHT22;51202;48.130;11.702;2022-07-09T08:24:07;20.60;40.90
64768;DHT22;51202;48.130;11.702;2022-07-09T08:26:37;20.80;40.80
64768;DHT22;51202;48.130;11.702;2022-07-09T08:29:06;21.00;40.50
64768;DHT22;51202;48.130;11.702;2022-07-09T08:31:36;21.20;40.40
64768;DHT22;51202;48.130;11.702;2022-07-09T08:34:05;21.40;40.20
64768;DHT22;51202;48.130;11.702;2022-07-09T08:36:33;21.60;40.10
64768;DHT22;51202;48.130;11.702;2022-07-09T08:39:02;21.90;39.90
64768;DHT22;51202;48.130;11.702;2022-07-09T08:41:31;22.10;39.60
64768;DHT22;51202;48.130;11.702;2022-07-09T08:44:03;22.30;39.50
64768;DHT22;51202;48.130;11.702;2022-07-09T08:46:32;22.60;39.20
64768;DHT22;51202;48.130;11.702;2022-07-09T08:49:08;22.90;39.10
64768;DHT22;51202;48.130;11.702;2022-07-09T08:51:38;23.20;38.90
64768;DHT22;51202;48.130;11.702;2022-07-09T08:54:07;23.20;38.70
64768;DHT22;51202;48.130;11.702;2022-07-09T08:56:36;23.20;39.00
64768;DHT22;51202;48.130;11.702;2022-07-09T08:59:08;23.10;39.00
64768;DHT22;51202;48.130;11.702;2022-07-09T09:01:37;23.10;39.10
64768;DHT22;51202;48.130;11.702;2022-07-09T09:04:06;23.20;39.00
64768;DHT22;51202;48.130;11.702;2022-07-09T09:06:37;23.30;38.90
64768;DHT22;51202;48.130;11.702;2022-07-09T09:09:17;23.30;38.70
64768;DHT22;51202;48.130;11.702;2022-07-09T09:11:48;23.60;38.50
64768;DHT22;51202;48.130;11.702;2022-07-09T09:14:20;23.80;38.20
64768;DHT22;51202;48.130;11.702;2022-07-09T09:16:49;23.90;38.00
64768;DHT22;51202;48.130;11.702;2022-07-09T09:19:18;24.20;37.80
64768;DHT22;51202;48.130;11.702;2022-07-09T09:21:51;24.50;37.40
64768;DHT22;51202;48.130;11.702;2022-07-09T09:24:26;24.90;37.00
64768;DHT22;51202;48.130;11.702;2022-07-09T09:26:57;25.30;36.50
64768;DHT22;51202;48.130;11.702;2022-07-09T09:29:28;25.80;36.00
64768;DHT22;51202;48.130;11.702;2022-07-09T09:31:57;26.80;35.30
64768;DHT22;51202;48.130;11.702;2022-07-09T09:34:36;28.80;34.00
64768;DHT22;51202;48.130;11.702;2022-07-09T09:37:08;31.60;31.80
64768;DHT22;51202;48.130;11.702;2022-07-09T09:39:38;33.70;29.80
64768;DHT22;51202;48.130;11.702;2022-07-09T09:42:06;35.50;28.80
64768;DHT22;51202;48.130;11.702;2022-07-09T09:44:43;36.90;28.10
64768;DHT22;51202;48.130;11.702;2022-07-09T09:47:13;38.20;27.50
64768;DHT22;51202;48.130;11.702;2022-07-09T09:49:42;39.00;27.20
64768;DHT22;51202;48.130;11.702;2022-07-09T09:52:11;39.70;27.20
64768;DHT22;51202;48.130;11.702;2022-07-09T09:54:40;40.50;27.10
64768;DHT22;51202;48.130;11.702;2022-07-09T09:57:11;40.80;27.10
64768;DHT22;51202;48.130;11.702;2022-07-09T09:59:42;40.30;27.30
64768;DHT22;51202;48.130;11.702;2022-07-09T10:02:12;38.50;27.90
64768;DHT22;51202;48.130;11.702;2022-07-09T10:04:43;37.50;29.00
64768;DHT22;51202;48.130;11.702;2022-07-09T10:07:14;37.30;29.40
64768;DHT22;51202;48.130;11.702;2022-07-09T10:09:52;38.40;29.50
64768;DHT22;51202;48.130;11.702;2022-07-09T10:12:25;39.60;29.20
64768;DHT22;51202;48.130;11.702;2022-07-09T10:14:56;39.90;29.30
64768;DHT22;51202;48.130;11.702;2022-07-09T10:17:26;40.20;29.70
64768;DHT22;51202;48.130;11.702;2022-07-09T10:19:56;41.10;29.70
64768;DHT22;51202;48.130;11.702;2022-07-09T10:22:34;41.70;29.90
64768;DHT22;51202;48.130;11.702;2022-07-09T10:25:05;40.00;30.40
64768;DHT22;51202;48.130;11.702;2022-07-09T10:27:44;38.90;31.50
64768;DHT22;51202;48.130;11.702;2022-07-09T10:30:24;37.00;32.90
64768;DHT22;51202;48.130;11.702;2022-07-09T10:33:04;35.40;34.30
64768;DHT22;51202;48.130;11.702;2022-07-09T10:35:40;34.10;35.30
64768;DHT22;51202;48.130;11.702;2022-07-09T10:38:09;32.70;36.50
64768;DHT22;51202;48.130;11.702;2022-07-09T10:40:39;33.20;36.80
64768;DHT22;51202;48.130;11.702;2022-07-09T10:43:09;35.10;36.30
64768;DHT22;51202;48.130;11.702;2022-07-09T10:45:40;36.20;34.60
64768;DHT22;51202;48.130;11.702;2022-07-09T10:48:11;36.30;34.50
64768;DHT22;51202;48.130;11.702;2022-07-09T10:50:41;36.30;34.80
64768;DHT22;51202;48.130;11.702;2022-07-09T10:53:11;37.90;34.30
64768;DHT22;51202;48.130;11.702;2022-07-09T10:55:42;39.50;33.40
64768;DHT22;51202;48.130;11.702;2022-07-09T10:58:19;37.70;34.10
64768;DHT22;51202;48.130;11.702;2022-07-09T11:00:56;38.90;34.30
64768;DHT22;51202;48.130;11.702;2022-07-09T11:03:25;37.90;35.00
64768;DHT22;51202;48.130;11.702;2022-07-09T11:05:55;37.00;35.50
64768;DHT22;51202;48.130;11.702;2022-07-09T11:08:24;35.10;36.80
64768;DHT22;51202;48.130;11.702;2022-07-09T11:10:53;33.40;38.90
64768;DHT22;51202;48.130;11.702;2022-07-09T11:13:23;32.20;39.30
64768;DHT22;51202;48.130;11.702;2022-07-09T11:15:59;31.00;40.20
64768;DHT22;51202;48.130;11.702;2022-07-09T11:18:29;30.20;40.80
64768;DHT22;51202;48.130;11.702;2022-07-09T11:20:58;29.60;41.00
64768;DHT22;51202;48.130;11.702;2022-07-09T11:23:27;29.40;41.10
64768;DHT22;51202;48.130;11.702;2022-07-09T11:25:55;29.20;41.00
64768;DHT22;51202;48.130;11.702;2022-07-09T11:28:25;30.00;40.90
64768;DHT22;51202;48.130;11.702;2022-07-09T11:30:59;31.60;39.80
64768;DHT22;51202;48.130;11.702;2022-07-09T11:33:28;32.70;38.60
64768;DHT22;51202;48.130;11.702;2022-07-09T11:36:18;32.90;38.50
64768;DHT22;51202;48.130;11.702;2022-07-09T11:38:48;34.10;38.40
64768;DHT22;51202;48.130;11.702;2022-07-09T11:41:17;34.40;38.40
64768;DHT22;51202;48.130;11.702;2022-07-09T11:43:46;34.50;37.90
64768;DHT22;51202;48.130;11.702;2022-07-09T11:46:18;34.30;38.80
64768;DHT22;51202;48.130;11.702;2022-07-09T11:48:51;33.50;38.70
64768;DHT22;51202;48.130;11.702;2022-07-09T11:51:30;32.90;39.30
64768;DHT22;51202;48.130;11.702;2022-07-09T11:54:00;33.20;39.30
64768;DHT22;51202;48.130;11.702;2022-07-09T11:56:40;34.00;39.10
64768;DHT22;51202;48.130;11.702;2022-07-09T11:59:11;36.00;38.90
64768;DHT22;51202;48.130;11.702;2022-07-09T12:01:41;38.50;38.40
64768;DHT22;51202;48.130;11.702;2022-07-09T12:04:17;38.70;38.00
64768;DHT22;51202;48.130;11.702;2022-07-09T12:06:47;39.70;38.10
64768;DHT22;51202;48.130;11.702;2022-07-09T12:09:27;40.00;38.10
64768;DHT22;51202;48.130;11.702;2022-07-09T12:11:57;39.70;38.20
64768;DHT22;51202;48.130;11.702;2022-07-09T12:14:26;39.40;38.80
64768;DHT22;51202;48.130;11.702;2022-07-09T12:16:58;39.50;39.20
64768;DHT22;51202;48.130;11.702;2022-07-09T12:19:27;39.00;39.60
64768;DHT22;51202;48.130;11.702;2022-07-09T12:21:55;38.00;40.20
64768;DHT22;51202;48.130;11.702;2022-07-09T12:24:26;36.90;40.80
64768;DHT22;51202;48.130;11.702;2022-07-09T12:26:54;35.90;41.50
64768;DHT22;51202;48.130;11.702;2022-07-09T12:29:43;35.10;42.10
64768;DHT22;51202;48.130;11.702;2022-07-09T12:32:13;34.60;42.50
64768;DHT22;51202;48.130;11.702;2022-07-09T12:34:42;33.90;42.90
64768;DHT22;51202;48.130;11.702;2022-07-09T12:37:11;33.40;43.10
64768;DHT22;51202;48.130;11.702;2022-07-09T12:39:40;33.00;43.20
64768;DHT22;51202;48.130;11.702;2022-07-09T12:42:17;32.40;43.50
64768;DHT22;51202;48.130;11.702;2022-07-09T12:44:46;32.10;43.50
64768;DHT22;51202;48.130;11.702;2022-07-09T12:47:17;31.80;43.80
64768;DHT22;51202;48.130;11.702;2022-07-09T12:49:45;31.40;44.00
64768;DHT22;51202;48.130;11.702;2022-07-09T12:52:14;31.00;44.20
64768;DHT22;51202;48.130;11.702;2022-07-09T12:54:43;30.60;44.20
64768;DHT22;51202;48.130;11.702;2022-07-09T12:57:13;30.40;44.20
64768;DHT22;51202;48.130;11.702;2022-07-09T12:59:42;29.90;44.40
64768;DHT22;51202;48.130;11.702;2022-07-09T13:02:10;29.50;44.40
64768;DHT22;51202;48.130;11.702;2022-07-09T13:04:41;29.20;44.50
64768;DHT22;51202;48.130;11.702;2022-07-09T13:07:10;28.90;44.30
64768;DHT22;51202;48.130;11.702;2022-07-09T13:09:38;29.20;44.00
64768;DHT22;51202;48.130;11.702;2022-07-09T13:12:07;29.80;43.90
64768;DHT22;51202;48.130;11.702;2022-07-09T13:14:36;29.80;44.00
64768;DHT22;51202;48.130;11.702;2022-07-09T13:17:05;29.80;43.90
64768;DHT22;51202;48.130;11.702;2022-07-09T13:19:55;30.20;43.70
64768;DHT22;51202;48.130;11.702;2022-07-09T13:22:24;31.20;43.30
64768;DHT22;51202;48.130;11.702;2022-07-09T13:24:53;32.70;43.30
64768;DHT22;51202;48.130;11.702;2022-07-09T13:27:22;34.50;43.10
64768;DHT22;51202;48.130;11.702;2022-07-09T13:29:51;36.00;42.80
64768;DHT22;51202;48.130;11.702;2022-07-09T13:32:20;36.70;42.50
64768;DHT22;51202;48.130;11.702;2022-07-09T13:34:49;36.20;42.50
64768;DHT22;51202;48.130;11.702;2022-07-09T13:37:20;36.10;42.90
64768;DHT22;51202;48.130;11.702;2022-07-09T13:39:50;35.80;43.30
64768;DHT22;51202;48.130;11.702;2022-07-09T13:42:20;34.90;43.70
64768;DHT22;51202;48.130;11.702;2022-07-09T13:44:49;34.20;44.20
64768;DHT22;51202;48.130;11.702;2022-07-09T13:47:17;33.30;44.50
64768;DHT22;51202;48.130;11.702;2022-07-09T13:49:46;32.40;44.90
64768;DHT22;51202;48.130;11.702;2022-07-09T13:52:15;31.60;45.20
64768;DHT22;51202;48.130;11.702;2022-07-09T13:54:45;30.90;45.60
64768;DHT22;51202;48.130;11.702;2022-07-09T13:57:14;30.30;45.90
64768;DHT22;51202;48.130;11.702;2022-07-09T13:59:43;29.80;46.00
64768;DHT22;51202;48.130;11.702;2022-07-09T14:02:12;29.40;45.90
64768;DHT22;51202;48.130;11.702;2022-07-09T14:04:47;29.20;46.00
64768;DHT22;51202;48.130;11.702;2022-07-09T14:07:16;28.90;46.00
64768;DHT22;51202;48.130;11.702;2022-07-09T14:09:47;28.60;46.00
64768;DHT22;51202;48.130;11.702;2022-07-09T14:12:15;28.40;45.70
64768;DHT22;51202;48.130;11.702;2022-07-09T14:14:44;28.40;45.40
64768;DHT22;51202;48.130;11.702;2022-07-09T14:17:13;28.40;45.20
64768;DHT22;51202;48.130;11.702;2022-07-09T14:19:42;28.40;45.00
64768;DHT22;51202;48.130;11.702;2022-07-09T14:22:11;28.30;45.60
64768;DHT22;51202;48.130;11.702;2022-07-09T14:24:40;28.10;44.80
64768;DHT22;51202;48.130;11.702;2022-07-09T14:27:10;27.90;44.90
64768;DHT22;51202;48.130;11.702;2022-07-09T14:29:44;28.00;44.50
64768;DHT22;51202;48.130;11.702;2022-07-09T14:32:14;28.00;44.30
64768;DHT22;51202;48.130;11.702;2022-07-09T14:34:42;27.80;44.40
64768;DHT22;51202;48.130;11.702;2022-07-09T14:37:11;27.70;44.30
64768;DHT22;51202;48.130;11.702;2022-07-09T14:39:40;27.70;44.00
64768;DHT22;51202;48.130;11.702;2022-07-09T14:42:10;27.70;44.00
64768;DHT22;51202;48.130;11.702;2022-07-09T14:44:39;27.60;43.90
64768;DHT22;51202;48.130;11.702;2022-07-09T14:47:07;27.50;43.80
64768;DHT22;51202;48.130;11.702;2022-07-09T14:49:36;27.30;43.70
64768;DHT22;51202;48.130;11.702;2022-07-09T14:52:13;27.30;43.50
64768;DHT22;51202;48.130;11.702;2022-07-09T14:54:42;27.20;43.60
64768;DHT22;51202;48.130;11.702;2022-07-09T14:57:13;27.10;43.40
64768;DHT22;51202;48.130;11.702;2022-07-09T14:59:42;26.90;43.30
64768;DHT22;51202;48.130;11.702;2022-07-09T15:02:11;26.80;43.30
64768;DHT22;51202;48.130;11.702;2022-07-09T15:04:40;26.60;43.20
64768;DHT22;51202;48.130;11.702;2022-07-09T15:07:08;26.60;43.30
64768;DHT22;51202;48.130;11.702;2022-07-09T15:09:37;26.60;43.20
64768;DHT22;51202;48.130;11.702;2022-07-09T15:12:07;26.60;43.00
64768;DHT22;51202;48.130;11.702;2022-07-09T15:14:37;26.50;43.00
64768;DHT22;51202;48.130;11.702;2022-07-09T15:17:06;26.40;42.90
64768;DHT22;51202;48.130;11.702;2022-07-09T15:19:35;26.40;42.90
64768;DHT22;51202;48.130;11.702;2022-07-09T15:22:03;26.20;43.00
64768;DHT22;51202;48.130;11.702;2022-07-09T15:24:32;26.10;42.80
64768;DHT22;51202;48.130;11.702;2022-07-09T15:27:01;26.30;42.80
64768;DHT22;51202;48.130;11.702;2022-07-09T15:29:30;26.50;42.40
64768;DHT22;51202;48.130;11.702;2022-07-09T15:32:01;26.90;42.10
64768;DHT22;51202;48.130;11.702;2022-07-09T15:34:30;27.10;42.00